Time;durP1;ratioP1;P1;durP2;ratioP2;P2;SDS_P1;SDS_P2;PMS_P1;PMS_P2;Temp;Humidity;BMP_temperature;BMP_pressure;BME280_temperature;BME280_humidity;BME280_pressure;Samples;Min_cycle;Max_cycle;Signal;HPM_P1;HPM_P2
2022/05/05 00:01:53;;;;;;;9.25;4.45;;;;;;;12.94;48.96;99405.75;1771208;81;20975;-40
2022/05/05 00:04:21;;;;;;;8.85;4.58;;;;;;;12.87;49.13;99402.64;1771214;81;20991;-39
2022/05/05 00:06:47;;;;;;;8.88;4.40;;;;;;;12.85;49.78;99398.42;1771082;81;20936;-37
2022/05/05 00:09:12;;;;;;;7.45;4.45;;;;;;;12.84;49.24;99405.50;1771205;81;21512;-40
2022/05/05 00:14:28;;;;;;;7.33;4.58;;;;;;;12.82;49.40;99398.60;1771326;81;20987;-37
2022/05/05 00:17:01;;;;;;;9.30;4.47;;;;;;;12.84;49.15;99405.50;1771204;81;20987;-38
2022/05/05 00:19:30;;;;;;;10.55;4.70;;;;;;;12.85;49.22;99399.27;1771194;81;21433;-38
2022/05/05 00:21:56;;;;;;;9.13;4.80;;;;;;;12.86;49.33;99400.09;1771186;81;20999;-35
2022/05/05 00:24:22;;;;;;;7.10;4.25;;;;;;;12.86;49.32;99397.02;1771185;80;20975;-36
2022/05/05 00:26:48;;;;;;;10.93;4.40;;;;;;;12.85;49.38;99405.02;1771182;81;21007;-38
2022/05/05 00:29:14;;;;;;;12.60;4.53;;;;;;;12.81;49.41;99407.00;1771193;81;20944;-36
2022/05/05 00:31:40;;;;;;;12.78;4.60;;;;;;;12.77;49.58;99408.59;1771300;81;20960;-37
2022/05/05 00:34:06;;;;;;;12.35;4.60;;;;;;;12.77;49.44;99403.31;1771172;81;20974;-37
2022/05/05 00:36:32;;;;;;;7.42;4.78;;;;;;;12.76;49.53;99397.68;1771190;80;21000;-38
2022/05/05 00:38:58;;;;;;;12.88;4.62;;;;;;;12.76;49.54;99399.84;1771170;79;21007;-38
2022/05/05 00:41:24;;;;;;;8.85;4.42;;;;;;;12.72;49.65;99399.66;1771227;81;20976;-36
2022/05/05 00:43:50;;;;;;;9.63;4.30;;;;;;;12.71;49.65;99395.31;1751732;81;21492;-38
2022/05/05 00:46:15;;;;;;;7.55;4.62;;;;;;;12.74;49.53;99396.45;1771144;81;20987;-39
2022/05/05 00:48:44;;;;;;;14.65;4.53;;;;;;;12.74;49.48;99399.58;1771097;80;21454;-36
2022/05/05 00:51:11;;;;;;;9.23;4.65;;;;;;;12.72;49.65;99402.30;1771166;81;20987;-38
2022/05/05 00:53:37;;;;;;;7.30;4.03;;;;;;;12.72;49.56;99401.47;1771121;80;20975;-38
2022/05/05 00:56:10;;;;;;;8.23;3.77;;;;;;;12.73;49.69;99401.34;1771365;79;21002;-38
2022/05/05 00:58:38;;;;;;;7.55;4.62;;;;;;;12.70;49.74;99403.32;1771341;81;20975;-38
2022/05/05 01:01:04;;;;;;;;;;;;;;;12.70;49.81;99398.05;1773760;81;21556;-36
2022/05/05 01:03:35;;;;;;;12.65;4.72;;;;;;;12.72;49.70;99396.19;1771330;81;20412;-36
2022/05/05 01:06:04;;;;;;;10.20;4.10;;;;;;;12.72;49.58;99393.55;1771072;81;20951;-38
2022/05/05 01:08:30;;;;;;;8.65;3.83;;;;;;;12.70;49.63;99398.05;1770887;81;21460;-40
2022/05/05 01:10:56;;;;;;;9.55;4.30;;;;;;;12.65;50.08;99402.30;1751719;81;21452;-41
2022/05/05 01:13:25;;;;;;;11.90;4.35;;;;;;;12.61;49.85;99399.48;1771144;81;21006;-37
2022/05/05 01:15:51;;;;;;;7.70;4.12;;;;;;;12.60;49.70;99400.42;1771063;81;21007;-37
2022/05/05 01:18:16;;;;;;;6.72;3.58;;;;;;;12.61;49.55;99396.38;1771160;81;21031;-38
2022/05/05 01:20:46;;;;;;;8.35;3.87;;;;;;;12.58;49.75;99393.91;1771039;81;21150;-41
2022/05/05 01:23:13;;;;;;;12.47;4.42;;;;;;;12.60;49.67;99395.14;1770305;81;21018;-37
2022/05/05 01:28:24;;;;;;;15.25;3.92;;;;;;;12.54;49.79;99387.14;1771133;81;21429;-37
2022/05/05 01:30:50;;;;;;;11.53;4.15;;;;;;;12.54;49.76;99389.78;1771124;81;20971;-35
2022/05/05 01:33:22;;;;;;;5.42;3.85;;;;;;;12.50;49.87;99386.96;1771112;80;20979;-38
2022/05/05 01:35:56;;;;;;;7.80;3.87;;;;;;;12.50;49.73;99377.73;1771109;79;20939;-35
2022/05/05 01:38:36;;;;;;;7.92;4.08;;;;;;;12.47;49.90;99377.91;1771106;81;20951;-38
2022/05/05 01:40:58;;;;;;;10.48;3.80;;;;;;;12.47;49.87;99381.86;1770439;81;20956;-38
2022/05/05 01:43:23;;;;;;;8.55;3.85;;;;;;;12.44;50.07;99379.41;1771070;81;20987;-39
2022/05/05 01:45:50;;;;;;;5.65;3.45;;;;;;;12.44;49.94;99383.36;1771081;81;20956;-37
2022/05/05 01:48:16;;;;;;;10.53;3.90;;;;;;;12.45;49.89;99377.16;1771128;80;20972;-38
2022/05/05 01:50:42;;;;;;;11.35;4.15;;;;;;;12.45;50.02;99378.48;1771127;80;21031;-37
2022/05/05 01:53:08;;;;;;;5.17;3.60;;;;;;;12.46;49.90;99369.61;1771125;81;20966;-39
2022/05/05 01:55:34;;;;;;;9.95;4.45;;;;;;;12.46;49.99;99374.88;1771115;80;20975;-39
2022/05/05 01:58:02;;;;;;;7.35;3.90;;;;;;;12.42;50.48;99370.27;1771119;80;20974;-39
2022/05/05 02:00:28;;;;;;;5.45;3.65;;;;;;;12.40;50.16;99378.75;1771404;79;20932;-38
2022/05/05 02:02:54;;;;;;;10.98;3.90;;;;;;;12.41;49.86;99369.91;1771111;81;21592;-36
2022/05/05 02:05:20;;;;;;;9.20;4.05;;;;;;;12.39;50.10;99371.80;1771160;81;20940;-39
2022/05/05 02:07:47;;;;;;;6.78;3.65;;;;;;;12.38;50.10;99376.68;1771123;81;20971;-39
2022/05/05 02:10:15;;;;;;;;;;;;;;;12.37;50.05;99373.69;1773746;81;21429;-38
2022/05/05 02:12:45;;;;;;;4.37;3.60;;;;;;;12.35;50.06;99375.57;1771097;80;20135;-36
2022/05/05 02:15:13;;;;;;;11.12;4.05;;;;;;;12.33;49.85;99373.47;1771123;81;21492;-36
2022/05/05 02:17:42;;;;;;;6.90;4.20;;;;;;;12.29;50.12;99374.13;1771091;79;20974;-38
2022/05/05 02:20:11;;;;;;;11.22;4.22;;;;;;;12.27;50.21;99369.42;1771168;81;20947;-38
2022/05/05 02:22:39;;;;;;;7.10;4.00;;;;;;;12.27;50.25;99375.17;1771026;81;20947;-40
2022/05/05 02:25:05;;;;;;;5.95;3.55;;;;;;;12.23;50.45;99373.20;1771054;81;20987;-38
2022/05/05 02:27:50;;;;;;;7.40;4.20;;;;;;;12.18;50.40;99369.98;1771322;80;20973;-36
2022/05/05 02:30:18;;;;;;;6.92;3.98;;;;;;;12.13;50.70;99366.77;1771125;81;20975;-36
2022/05/05 02:32:44;;;;;;;7.35;4.00;;;;;;;12.09;50.88;99364.80;1771153;81;21007;-39
2022/05/05 02:35:10;;;;;;;9.63;4.33;;;;;;;12.08;50.73;99368.87;1771087;80;21448;-38
2022/05/05 02:43:28;;;;;;;4.85;3.60;;;;;;;12.02;52.02;99362.63;1800334;79;22703;-36
2022/05/05 02:45:54;;;;;;;7.77;3.90;;;;;;;11.98;51.16;99367.23;1760697;81;21086;-35
2022/05/05 02:48:19;;;;;;;9.88;4.22;;;;;;;11.96;50.98;99372.23;1760522;81;21003;-38
2022/05/05 02:50:45;;;;;;;8.90;3.83;;;;;;;11.95;50.99;99370.08;1761751;80;21014;-37
2022/05/05 02:55:54;;;;;;;9.03;4.00;;;;;;;11.95;51.30;99371.84;1761736;81;21098;-36
2022/05/05 02:58:20;;;;;;;6.65;4.15;;;;;;;11.95;51.21;99373.16;1761683;81;21022;-38
2022/05/05 03:00:46;;;;;;;18.82;4.30;;;;;;;11.96;51.26;99368.28;1761693;80;20991;-37
2022/05/05 03:03:12;;;;;;;9.43;4.37;;;;;;;11.96;51.28;99375.70;1761053;80;21074;-41
2022/05/05 03:05:38;;;;;;;13.03;4.50;;;;;;;11.97;51.37;99377.42;1760600;80;22279;-40
2022/05/05 03:08:05;;;;;;;9.03;4.20;;;;;;;11.98;51.31;99379.09;1760378;81;21610;-37
2022/05/05 03:10:30;;;;;;;11.60;4.33;;;;;;;11.96;51.39;99381.45;1760597;80;21535;-39
2022/05/05 03:12:56;;;;;;;10.05;4.37;;;;;;;11.95;51.50;99380.62;1760459;80;21074;-40
2022/05/05 03:15:22;;;;;;;8.28;4.17;;;;;;;11.96;51.35;99380.14;1760581;81;21026;-34
2022/05/05 03:17:49;;;;;;;10.45;4.30;;;;;;;11.94;51.51;99380.70;1760495;81;21063;-39
2022/05/05 03:20:15;;;;;;;8.05;4.03;;;;;;;11.91;51.81;99384.34;1760480;80;21027;-35
2022/05/05 03:22:43;;;;;;;12.07;4.40;;;;;;;11.90;51.91;99386.63;1760402;81;21066;-36
2022/05/05 03:25:09;;;;;;;;;;;;;;;11.89;51.54;99379.13;1762902;81;21043;-38
2022/05/05 03:27:39;;;;;;;15.28;4.30;;;;;;;11.86;52.32;99382.42;1760410;81;20164;-38
2022/05/05 03:30:06;;;;;;;9.60;4.05;;;;;;;11.87;51.38;99382.33;1761599;80;21533;-39
2022/05/05 03:32:32;;;;;;;12.68;4.65;;;;;;;11.83;51.47;99383.46;1761870;81;21010;-37
2022/05/05 03:34:58;;;;;;;10.75;3.80;;;;;;;11.80;51.58;99383.63;1761648;81;21026;-37
2022/05/05 03:37:31;;;;;;;7.40;3.87;;;;;;;11.78;51.67;99388.14;1761695;80;20991;-37
2022/05/05 03:39:57;;;;;;;5.40;3.62;;;;;;;11.79;51.73;99387.22;1761665;81;21499;-39
2022/05/05 03:42:23;;;;;;;7.50;4.25;;;;;;;11.77;51.93;99389.11;1755465;80;21003;-37
2022/05/05 03:44:49;;;;;;;13.30;4.25;;;;;;;11.73;51.90;99386.25;1748580;81;20996;-38
2022/05/05 03:47:15;;;;;;;8.50;4.65;;;;;;;11.70;52.04;99394.34;1748613;81;21027;-37
2022/05/05 03:49:40;;;;;;;10.32;4.10;;;;;;;11.67;51.88;99391.41;1748679;82;20992;-37
2022/05/05 03:52:06;;;;;;;8.70;4.17;;;;;;;11.66;52.05;99392.81;1748595;82;21457;-36
2022/05/05 03:54:32;;;;;;;17.07;4.83;;;;;;;11.64;52.30;99394.69;1748102;81;20984;-38
2022/05/05 03:56:58;;;;;;;8.70;4.10;;;;;;;11.59;52.78;99394.09;1748059;81;21035;-39
2022/05/05 03:59:23;;;;;;;10.40;3.80;;;;;;;11.56;52.40;99392.98;1748020;81;21031;-37
2022/05/05 04:01:50;;;;;;;12.70;4.33;;;;;;;11.54;52.33;99390.43;1748002;81;20988;-39
2022/05/05 04:04:16;;;;;;;5.47;3.80;;;;;;;11.57;52.20;99390.71;1748053;81;20991;-36
2022/05/05 04:06:42;;;;;;;15.28;5.17;;;;;;;11.56;52.28;99392.98;1748304;81;20999;-44
2022/05/05 04:09:10;;;;;;;10.50;4.17;;;;;;;11.51;52.60;99396.73;1748062;81;21537;-36
2022/05/05 04:11:36;;;;;;;6.67;3.95;;;;;;;11.49;53.08;99406.48;1748201;81;21422;-38
2022/05/05 04:14:03;;;;;;;7.20;4.33;;;;;;;11.48;52.73;99408.75;1747969;81;20964;-36
2022/05/05 04:16:32;;;;;;;186.28;11.90;;;;;;;11.50;52.55;99404.72;1748364;81;20996;-40
2022/05/05 04:19:01;;;;;;;13.32;4.30;;;;;;;11.50;52.72;99404.24;1748041;81;20991;-36
2022/05/05 04:21:27;;;;;;;7.05;3.87;;;;;;;11.46;52.96;99409.31;1748010;81;21491;-35
2022/05/05 04:23:53;;;;;;;12.33;4.47;;;;;;;11.47;53.06;99404.88;1748062;81;20972;-39
2022/05/05 04:26:19;;;;;;;10.08;3.87;;;;;;;11.42;53.99;99401.66;1748008;81;21027;-38
2022/05/05 04:28:49;;;;;;;12.03;4.08;;;;;;;11.45;52.92;99407.60;1748210;81;20991;-36
2022/05/05 04:31:17;;;;;;;14.73;4.87;;;;;;;11.44;53.07;99405.92;1748115;81;21002;-39
2022/05/05 04:33:43;;;;;;;7.70;4.05;;;;;;;11.47;52.89;99407.04;1748063;81;21539;-39
2022/05/05 04:36:12;;;;;;;10.13;4.20;;;;;;;11.51;53.07;99416.94;1748146;81;21547;-37
2022/05/05 04:38:38;;;;;;;8.28;4.80;;;;;;;11.50;53.22;99413.94;1748063;81;21471;-35
2022/05/05 04:41:04;;;;;;;8.73;4.08;;;;;;;11.50;53.16;99406.87;1747956;81;21015;-38
2022/05/05 04:43:30;;;;;;;7.72;4.72;;;;;;;11.53;53.15;99414.61;1758635;80;21018;-39
2022/05/05 04:45:56;;;;;;;7.37;4.35;;;;;;;11.53;53.10;99411.98;1761448;81;20959;-38
2022/05/05 04:48:22;;;;;;;10.08;3.90;;;;;;;11.55;53.09;99412.34;1761364;81;20983;-41
2022/05/05 04:50:48;;;;;;;10.13;4.80;;;;;;;11.54;53.22;99411.50;1761365;80;21023;-39
2022/05/05 04:53:13;;;;;;;9.93;4.10;;;;;;;11.56;53.11;99412.73;1761475;81;21349;-39
2022/05/05 04:55:39;;;;;;;9.63;4.25;;;;;;;11.61;53.11;99418.12;1760914;80;21081;-38
2022/05/05 04:58:05;;;;;;;8.80;4.20;;;;;;;11.61;53.11;99423.38;1761435;81;20986;-35
2022/05/05 05:00:31;;;;;;;7.47;3.85;;;;;;;11.60;53.25;99424.78;1761590;81;20976;-39
2022/05/05 05:02:58;;;;;;;11.20;4.60;;;;;;;11.62;53.29;99421.59;1761335;81;21027;-40
2022/05/05 05:05:23;;;;;;;8.75;4.45;;;;;;;11.66;52.90;99428.37;1761601;81;21026;-40
2022/05/05 05:07:49;;;;;;;8.68;4.70;;;;;;;11.64;52.88;99421.90;1761358;81;20992;-38
2022/05/05 05:10:15;;;;;;;11.88;4.25;;;;;;;11.66;52.98;99425.29;1761364;80;20975;-37
2022/05/05 05:12:41;;;;;;;15.53;3.87;;;;;;;11.69;52.92;99426.41;1761429;80;21484;-37
2022/05/05 05:15:08;;;;;;;11.65;4.65;;;;;;;11.68;53.14;99427.36;1761068;81;20996;-38
2022/05/05 05:17:34;;;;;;;7.45;4.17;;;;;;;11.70;52.97;99428.59;1761546;81;20979;-38
2022/05/05 05:20:00;;;;;;;8.58;4.37;;;;;;;11.72;53.04;99425.41;1761346;81;20994;-38
2022/05/05 05:22:26;;;;;;;8.05;4.08;;;;;;;11.71;53.38;99428.95;1761325;81;21034;-40
2022/05/05 05:24:52;;;;;;;10.75;4.58;;;;;;;11.76;53.28;99417.69;1761382;81;20991;-40
2022/05/05 05:27:17;;;;;;;10.65;3.95;;;;;;;11.80;52.95;99417.05;1761345;81;21038;-38
2022/05/05 05:29:43;;;;;;;12.15;4.22;;;;;;;11.83;53.05;99421.67;1761370;81;21039;-40
2022/05/05 05:32:09;;;;;;;8.13;4.42;;;;;;;11.87;52.94;99415.27;1761324;81;21000;-39
2022/05/05 05:34:35;;;;;;;10.05;4.00;;;;;;;11.89;53.20;99419.14;1761351;81;21027;-38
2022/05/05 05:37:01;;;;;;;13.38;3.98;;;;;;;11.95;52.91;99422.78;1761344;81;21018;-39
2022/05/05 05:39:27;;;;;;;8.08;4.25;;;;;;;11.96;52.96;99424.46;1761306;80;20967;-39
2022/05/05 05:41:53;;;;;;;8.68;4.42;;;;;;;12.00;52.74;99419.86;1761175;81;21034;-39
2022/05/05 05:44:19;;;;;;;9.78;4.75;;;;;;;12.02;52.76;99418.81;1747994;81;20995;-36
2022/05/05 05:46:44;;;;;;;17.17;5.45;;;;;;;12.04;52.99;99416.97;1748049;81;21028;-36
2022/05/05 05:49:10;;;;;;;16.37;4.62;;;;;;;12.08;53.02;99425.06;1748004;81;21027;-39
2022/05/05 05:51:36;;;;;;;15.55;4.72;;;;;;;12.13;52.90;99418.18;1748072;82;20988;-39
2022/05/05 05:54:02;;;;;;;11.68;4.35;;;;;;;12.20;52.79;99422.15;1747971;81;21536;-39
2022/05/05 05:56:28;;;;;;;12.23;4.97;;;;;;;12.23;52.88;99425.09;1748051;81;21540;-38
2022/05/05 05:58:54;;;;;;;10.28;4.42;;;;;;;12.28;52.77;99427.83;1748221;81;20995;-39
2022/05/05 06:01:19;;;;;;;10.38;4.78;;;;;;;12.32;52.65;99427.65;1747938;81;21351;-41
2022/05/05 06:03:54;;;;;;;8.93;4.28;;;;;;;12.33;52.88;99428.84;1748031;81;20988;-37
2022/05/05 06:06:24;;;;;;;13.03;4.25;;;;;;;12.38;52.85;99429.91;1747986;81;21004;-35
2022/05/05 06:08:50;;;;;;;11.85;4.45;;;;;;;12.45;52.77;99433.87;1747942;81;21031;-40
2022/05/05 06:11:18;;;;;;;7.53;4.28;;;;;;;12.49;52.81;99430.09;1748269;81;20995;-37
2022/05/05 06:13:44;;;;;;;9.08;4.60;;;;;;;12.52;52.75;99433.88;1747985;81;21403;-35
2022/05/05 06:16:10;;;;;;;8.13;4.37;;;;;;;12.56;52.79;99428.78;1747976;81;21051;-38
2022/05/05 06:18:40;;;;;;;12.18;4.70;;;;;;;12.61;52.61;99429.83;1748005;81;21004;-36
2022/05/05 06:21:07;;;;;;;18.90;5.05;;;;;;;12.63;53.02;99431.41;1747710;81;20964;-37
2022/05/05 06:23:33;;;;;;;13.45;5.00;;;;;;;12.72;52.58;99437.09;1747981;82;21008;-40
2022/05/05 06:25:59;;;;;;;13.65;4.67;;;;;;;12.78;52.45;99438.02;1748087;81;20996;-38
2022/05/05 06:28:25;;;;;;;13.53;4.70;;;;;;;12.83;52.46;99436.78;1748083;81;21515;-36
2022/05/05 06:30:51;;;;;;;10.78;4.47;;;;;;;12.87;52.75;99433.48;1748012;81;20992;-37
2022/05/05 06:33:17;;;;;;;9.48;5.12;;;;;;;12.92;52.61;99430.09;1747981;81;21003;-37
2022/05/05 06:35:43;;;;;;;11.30;4.83;;;;;;;13.01;52.32;99423.39;1747984;81;20965;-39
2022/05/05 06:38:08;;;;;;;13.83;4.90;;;;;;;13.06;52.29;99434.47;1748123;81;20968;-37
2022/05/05 06:40:34;;;;;;;12.45;4.62;;;;;;;13.13;52.23;99431.82;1747958;81;20972;-39
